Time;durP1;ratioP1;P1;durP2;ratioP2;P2;SDS_P1;SDS_P2;PMS_P1;PMS_P2;Temp;Humidity;BMP_temperature;BMP_pressure;BME280_temperature;BME280_humidity;BME280_pressure;Samples;Min_cycle;Max_cycle;Signal;HPM_P1;HPM_P2
2022/01/06 00:01:27;;;;;;;11.85;5.40;;;6.50;72.30;;;;;;5071388;28;20036;-71
2022/01/06 00:03:54;;;;;;;11.52;4.85;;;6.50;72.30;;;;;;5067446;28;20037;-71
2022/01/06 00:06:22;;;;;;;11.02;4.32;;;6.50;72.20;;;;;;5060984;28;20404;-72
2022/01/06 00:08:48;;;;;;;7.85;3.72;;;6.50;72.20;;;;;;5079749;28;20528;-71
2022/01/06 00:11:14;;;;;;;7.00;2.22;;;6.40;72.20;;;;;;5066573;28;20028;-70
2022/01/06 00:13:51;;;;;;;5.65;2.20;;;6.30;72.70;;;;;;5072521;28;20400;-74
2022/01/06 00:24:32;;;;;;;7.13;2.88;;;6.00;73.90;;;;;;5058700;28;20113;-74
2022/01/06 00:26:58;;;;;;;7.45;2.92;;;5.90;74.80;;;;;;5070903;28;20035;-70
2022/01/06 00:29:24;;;;;;;6.35;2.40;;;5.90;74.00;;;;;;5073720;28;20479;-71
2022/01/06 00:31:50;;;;;;;4.85;1.70;;;5.80;73.90;;;;;;5071104;28;20404;-71
2022/01/06 00:34:17;;;;;;;5.30;1.52;;;5.80;73.70;;;;;;5071901;28;20048;-71
2022/01/06 00:36:44;;;;;;;3.47;1.35;;;5.70;73.50;;;;;;5072358;28;20040;-70
2022/01/06 00:39:11;;;;;;;2.10;0.93;;;5.60;73.60;;;;;;5070868;28;20033;-70
2022/01/06 00:41:38;;;;;;;2.53;1.00;;;5.50;73.50;;;;;;5072196;28;20125;-72
2022/01/06 00:44:07;;;;;;;4.40;1.30;;;5.50;73.50;;;;;;5071847;28;20067;-70
2022/01/06 00:46:33;;;;;;;2.17;0.90;;;5.50;73.40;;;;;;5070669;28;20032;-72
2022/01/06 00:48:59;;;;;;;;;;;5.50;73.00;;;;;;5071259;28;20063;-70
2022/01/06 00:51:25;;;;;;;2.30;0.85;;;5.50;73.60;;;;;;5071950;28;19916;-72
2022/01/06 00:53:51;;;;;;;4.00;0.82;;;5.50;73.70;;;;;;5053779;28;20040;-72
2022/01/06 00:56:18;;;;;;;2.88;1.20;;;5.40;73.80;;;;;;5071318;28;20538;-72
2022/01/06 00:58:44;;;;;;;2.40;0.80;;;5.40;74.00;;;;;;5070892;28;20044;-70
2022/01/06 01:01:10;;;;;;;3.25;0.80;;;5.30;73.80;;;;;;5071596;28;20116;-71
2022/01/06 01:03:36;;;;;;;2.15;0.70;;;5.30;73.80;;;;;;5070555;28;20036;-70
2022/01/06 01:06:02;;;;;;;3.05;1.02;;;5.30;73.60;;;;;;5053565;28;20491;-72
2022/01/06 01:08:28;;;;;;;2.53;0.82;;;5.40;73.50;;;;;;5070134;28;20037;-71
2022/01/06 01:10:56;;;;;;;3.42;1.00;;;5.30;73.50;;;;;;5070374;28;20020;-71
2022/01/06 01:13:31;;;;;;;3.22;1.10;;;5.30;73.60;;;;;;5070488;28;20393;-71
2022/01/06 01:16:08;;;;;;;3.17;0.98;;;5.30;73.20;;;;;;5054463;28;20378;-72
2022/01/06 01:18:35;;;;;;;7.80;2.58;;;5.30;73.80;;;;;;5070162;28;20477;-72
2022/01/06 01:21:01;;;;;;;5.70;2.25;;;5.30;73.60;;;;;;5069711;28;20024;-71
2022/01/06 01:23:27;;;;;;;4.28;1.73;;;5.40;73.50;;;;;;5070950;28;20062;-71
2022/01/06 01:25:53;;;;;;;3.15;1.00;;;5.40;73.10;;;;;;5072835;28;20036;-70
2022/01/06 01:28:19;;;;;;;4.18;1.10;;;5.40;72.90;;;;;;5071044;28;20033;-72
2022/01/06 01:31:01;;;;;;;5.88;2.05;;;5.40;72.70;;;;;;5068586;28;20108;-72
2022/01/06 01:33:29;;;;;;;8.85;3.50;;;5.40;72.00;;;;;;5069301;28;20429;-70
2022/01/06 01:35:56;;;;;;;6.65;2.63;;;5.40;71.80;;;;;;5069499;28;20028;-72
2022/01/06 01:38:22;;;;;;;7.15;3.55;;;5.30;72.50;;;;;;5070816;28;20119;-72
2022/01/06 01:40:48;;;;;;;8.02;4.93;;;5.30;72.50;;;;;;5069408;28;20119;-70
2022/01/06 01:43:14;;;;;;;4.35;2.03;;;5.30;72.40;;;;;;5069300;28;20036;-72
2022/01/06 01:45:46;;;;;;;2.83;1.15;;;5.20;71.90;;;;;;5069219;28;20485;-72
2022/01/06 01:48:20;;;;;;;11.05;4.55;;;5.00;71.30;;;;;;5070289;28;20512;-71
2022/01/06 01:50:46;;;;;;;10.25;4.18;;;4.80;71.70;;;;;;5053737;28;20154;-70
2022/01/06 01:53:12;;;;;;;5.43;1.92;;;4.80;72.00;;;;;;5070295;28;20393;-70
2022/01/06 01:55:39;;;;;;;;;;;4.80;71.90;;;;;;5069890;28;20043;-70
2022/01/06 01:58:08;;;;;;;10.32;4.63;;;4.70;71.90;;;;;;5070470;28;19951;-70
2022/01/06 02:00:40;;;;;;;2.90;1.02;;;4.70;71.60;;;;;;5068610;28;20044;-70
2022/01/06 02:03:06;;;;;;;3.95;1.10;;;4.60;71.20;;;;;;5068978;28;20037;-70
2022/01/06 02:05:32;;;;;;;;;;;4.50;71.70;;;;;;5070678;28;20032;-70
2022/01/06 02:08:00;;;;;;;4.88;1.88;;;4.50;71.50;;;;;;5069989;28;19916;-70
2022/01/06 02:10:39;;;;;;;7.95;3.55;;;4.60;70.70;;;;;;5068650;28;20040;-70
2022/01/06 02:13:29;;;;;;;4.65;1.65;;;4.60;71.10;;;;;;5068996;28;20039;-70
2022/01/06 02:16:21;;;;;;;8.57;2.55;;;4.60;71.10;;;;;;5069027;28;20119;-70
2022/01/06 02:18:51;;;;;;;3.17;0.93;;;4.50;71.00;;;;;;5049644;28;20453;-69
2022/01/06 02:21:17;;;;;;;0.65;0.50;;;4.40;71.00;;;;;;5070417;28;20025;-70
2022/01/06 02:23:44;;;;;;;1.65;0.68;;;4.40;70.90;;;;;;5052163;28;20044;-70
2022/01/06 02:29:53;;;;;;;0.75;0.45;;;4.50;70.90;;;;;;5054490;28;20093;-70
2022/01/06 02:32:24;;;;;;;1.02;0.30;;;4.50;70.80;;;;;;5082791;28;20045;-69
2022/01/06 02:34:51;;;;;;;0.90;0.32;;;4.50;70.60;;;;;;5069743;28;20053;-71
2022/01/06 02:37:23;;;;;;;0.85;0.45;;;4.40;70.60;;;;;;5052060;28;20074;-70
2022/01/06 02:40:01;;;;;;;0.82;0.40;;;4.30;70.90;;;;;;5068090;28;20057;-69
2022/01/06 02:42:35;;;;;;;2.28;0.70;;;4.20;70.90;;;;;;5068416;28;20039;-70
2022/01/06 02:45:14;;;;;;;2.25;0.70;;;4.20;71.20;;;;;;5068609;28;20056;-70
2022/01/06 02:47:42;;;;;;;1.67;0.60;;;4.10;70.80;;;;;;5070049;28;20029;-71
2022/01/06 02:50:16;;;;;;;1.73;0.68;;;4.10;71.10;;;;;;5052171;28;20025;-70
2022/01/06 02:52:42;;;;;;;1.35;0.52;;;4.20;70.90;;;;;;5051854;28;20025;-70
2022/01/06 02:55:16;;;;;;;2.45;0.73;;;4.20;70.90;;;;;;5069447;28;20061;-71
2022/01/06 02:57:44;;;;;;;2.17;0.65;;;4.20;70.60;;;;;;5068551;28;20101;-70
2022/01/06 03:00:17;;;;;;;2.17;0.68;;;4.20;70.70;;;;;;5068583;28;20091;-71
2022/01/06 03:02:46;;;;;;;1.77;0.90;;;4.20;70.80;;;;;;5068238;28;20036;-70
2022/01/06 03:05:20;;;;;;;2.45;0.60;;;4.30;70.60;;;;;;5068291;28;20076;-70
2022/01/06 03:07:49;;;;;;;3.72;1.23;;;4.20;70.60;;;;;;5068319;28;20032;-70
2022/01/06 03:10:19;;;;;;;2.58;0.88;;;4.20;70.60;;;;;;5068286;28;20028;-72
2022/01/06 03:12:47;;;;;;;2.53;0.82;;;4.20;70.50;;;;;;5051627;28;20131;-71
2022/01/06 03:15:19;;;;;;;2.83;0.95;;;4.30;70.60;;;;;;5052700;28;20029;-70
2022/01/06 03:17:50;;;;;;;2.95;0.90;;;4.30;70.70;;;;;;5069473;28;20025;-71
2022/01/06 03:23:06;;;;;;;2.13;0.90;;;4.20;70.70;;;;;;5072223;28;20131;-71
2022/01/06 03:25:32;;;;;;;3.65;1.00;;;4.30;70.90;;;;;;5071961;28;20082;-70
2022/01/06 03:28:06;;;;;;;5.38;1.30;;;4.30;70.70;;;;;;5072983;28;20571;-70
2022/01/06 03:31:00;;;;;;;3.35;1.20;;;4.40;70.70;;;;;;5070628;28;20164;-70
2022/01/06 03:33:26;;;;;;;5.65;1.92;;;4.40;70.70;;;;;;5072826;28;20526;-71
2022/01/06 03:35:52;;;;;;;;;;;4.40;70.60;;;;;;5072371;28;20090;-70
2022/01/06 03:38:31;;;;;;;7.07;3.33;;;4.40;70.60;;;;;;5088555;28;19920;-71
2022/01/06 03:41:00;;;;;;;23.23;9.75;;;4.40;70.60;;;;;;5071462;28;20048;-71
2022/01/06 03:43:27;;;;;;;7.47;2.65;;;4.40;70.80;;;;;;5071662;28;20037;-70
2022/01/06 03:45:59;;;;;;;6.88;2.17;;;4.40;70.70;;;;;;5055231;28;20509;-71
2022/01/06 03:48:48;;;;;;;4.18;1.50;;;4.30;70.60;;;;;;5071663;28;20390;-70
2022/01/06 03:51:30;;;;;;;5.80;2.05;;;4.30;70.90;;;;;;5055013;28;20060;-71
2022/01/06 03:53:57;;;;;;;2.78;1.15;;;4.20;70.90;;;;;;5072502;28;20554;-70
2022/01/06 03:56:22;;;;;;;;;;;4.20;70.90;;;;;;5052083;28;20094;-70
2022/01/06 03:58:49;;;;;;;3.28;1.42;;;4.20;71.00;;;;;;5072825;28;19921;-72
2022/01/06 04:01:27;;;;;;;3.47;1.20;;;4.10;71.00;;;;;;5071240;28;20028;-71
2022/01/06 04:04:02;;;;;;;2.35;0.95;;;4.10;71.00;;;;;;5071637;28;20040;-72
2022/01/06 04:06:35;;;;;;;3.03;1.20;;;4.00;70.90;;;;;;5071089;28;20050;-70
2022/01/06 04:09:02;;;;;;;3.20;1.13;;;4.00;71.20;;;;;;5071089;28;20037;-71
2022/01/06 04:11:36;;;;;;;2.60;1.17;;;4.00;70.90;;;;;;5070988;28;20052;-70
2022/01/06 04:14:02;;;;;;;4.55;1.30;;;4.00;71.00;;;;;;5072140;28;20111;-71
2022/01/06 04:16:29;;;;;;;2.90;1.13;;;4.00;71.20;;;;;;5073164;28;20405;-71
2022/01/06 04:18:58;;;;;;;3.53;1.27;;;4.00;71.20;;;;;;5054458;28;20039;-71
2022/01/06 04:21:29;;;;;;;2.47;0.93;;;4.00;71.00;;;;;;5054684;28;20033;-70
2022/01/06 04:23:55;;;;;;;3.50;1.23;;;4.00;70.90;;;;;;5071090;28;20028;-70
2022/01/06 04:26:27;;;;;;;4.30;1.48;;;4.00;71.10;;;;;;5071149;28;20032;-70
2022/01/06 04:28:56;;;;;;;3.00;1.20;;;3.90;71.10;;;;;;5070934;28;20028;-70
2022/01/06 04:31:23;;;;;;;2.83;0.98;;;3.90;71.20;;;;;;5070361;28;20031;-71
2022/01/06 04:33:50;;;;;;;;;;;4.00;71.00;;;;;;5072216;28;20474;-70
2022/01/06 04:36:20;;;;;;;;;;;3.90;71.10;;;;;;5072401;28;19960;-69
2022/01/06 04:38:48;;;;;;;3.63;1.20;;;3.90;71.10;;;;;;5070739;28;19970;-70
2022/01/06 04:41:14;;;;;;;2.45;0.98;;;3.80;70.70;;;;;;5071730;28;20028;-70
2022/01/06 04:43:53;;;;;;;3.03;1.30;;;3.90;70.90;;;;;;5070659;28;20431;-69
2022/01/06 04:46:26;;;;;;;3.50;1.20;;;3.90;70.70;;;;;;5069574;28;20409;-69
2022/01/06 04:48:58;;;;;;;4.35;1.30;;;4.00;70.40;;;;;;5070584;28;20047;-69
2022/01/06 04:51:35;;;;;;;4.20;1.33;;;4.00;70.40;;;;;;5053846;28;20025;-70
2022/01/06 04:54:08;;;;;;;4.55;1.38;;;4.10;70.30;;;;;;5070077;28;20040;-70
2022/01/06 04:56:43;;;;;;;4.90;1.50;;;4.10;70.30;;;;;;5071387;28;20029;-70
2022/01/06 04:59:12;;;;;;;3.50;1.55;;;4.20;70.30;;;;;;5071766;28;20037;-70
2022/01/06 05:01:41;;;;;;;3.78;1.20;;;4.10;70.30;;;;;;5070411;28;20074;-69
2022/01/06 05:04:38;;;;;;;3.33;1.20;;;4.20;70.30;;;;;;5071765;28;20037;-70
2022/01/06 05:07:07;;;;;;;4.20;1.50;;;4.20;70.30;;;;;;5072166;28;20041;-70
2022/01/06 05:09:38;;;;;;;2.90;1.17;;;4.20;70.00;;;;;;5037079;28;20470;-70
2022/01/06 05:12:07;;;;;;;5.68;1.90;;;4.20;70.20;;;;;;5069981;28;20066;-69
2022/01/06 05:14:33;;;;;;;17.38;5.78;;;4.20;69.50;;;;;;5072312;28;20062;-71
2022/01/06 05:17:03;;;;;;;18.92;6.03;;;4.20;70.30;;;;;;5071161;28;20033;-70
2022/01/06 05:19:29;;;;;;;36.50;13.63;;;4.20;70.20;;;;;;5066896;28;20052;-70
2022/01/06 05:21:56;;;;;;;14.18;5.63;;;4.20;70.50;;;;;;5069801;28;20029;-71
2022/01/06 05:24:24;;;;;;;6.43;2.10;;;4.20;70.40;;;;;;5053291;28;20060;-71
2022/01/06 05:27:12;;;;;;;6.05;2.03;;;4.10;70.40;;;;;;5070899;28;20048;-69
2022/01/06 05:29:38;;;;;;;9.65;2.72;;;4.10;70.50;;;;;;5070927;28;20061;-71
2022/01/06 05:32:15;;;;;;;;;;;4.00;70.70;;;;;;5069959;28;20040;-70
2022/01/06 05:35:00;;;;;;;27.23;9.23;;;4.00;70.40;;;;;;5068893;28;19920;-71
2022/01/06 05:37:26;;;;;;;5.13;2.38;;;4.00;70.70;;;;;;5069694;28;20486;-71
2022/01/06 05:39:58;;;;;;;10.55;1.60;;;4.00;70.90;;;;;;5069724;28;20036;-71
2022/01/06 05:42:26;;;;;;;5.55;1.70;;;3.90;71.00;;;;;;5070574;28;20043;-71
2022/01/06 05:44:58;;;;;;;3.95;1.17;;;3.80;71.20;;;;;;5059982;28;20033;-71
2022/01/06 05:47:30;;;;;;;3.28;1.00;;;3.70;71.50;;;;;;5059028;28;20025;-70
2022/01/06 05:49:56;;;;;;;3.58;1.40;;;3.50;71.60;;;;;;5066008;28;20082;-69
2022/01/06 05:52:28;;;;;;;2.70;1.20;;;3.50;72.10;;;;;;5070646;28;20086;-70
2022/01/06 05:55:23;;;;;;;3.17;1.13;;;3.40;72.40;;;;;;5068993;28;20343;-71
2022/01/06 05:58:09;;;;;;;3.22;1.30;;;3.20;72.60;;;;;;5053707;28;20077;-71
2022/01/06 06:00:36;;;;;;;5.70;1.58;;;3.30;72.60;;;;;;5052136;28;20064;-71
2022/01/06 06:03:02;;;;;;;4.22;1.40;;;3.30;72.50;;;;;;5068826;28;20081;-71
2022/01/06 06:05:48;;;;;;;6.15;1.83;;;3.30;72.50;;;;;;5047283;28;20102;-69
2022/01/06 06:08:17;;;;;;;4.82;1.38;;;3.30;72.50;;;;;;5044369;28;20033;-72
2022/01/06 06:10:43;;;;;;;5.68;2.50;;;3.30;72.40;;;;;;5068864;28;20040;-70
2022/01/06 06:13:19;;;;;;;6.47;1.80;;;3.30;72.60;;;;;;5052405;28;20032;-70
2022/01/06 06:15:45;;;;;;;5.50;1.98;;;3.20;72.50;;;;;;5067357;28;20044;-70
2022/01/06 06:18:13;;;;;;;7.15;2.40;;;3.20;72.90;;;;;;5067649;28;20059;-70
2022/01/06 06:20:54;;;;;;;6.55;2.00;;;3.10;73.30;;;;;;5067605;28;20049;-70
2022/01/06 06:23:20;;;;;;;7.07;2.25;;;3.00;73.80;;;;;;5065054;28;20519;-70
2022/01/06 06:25:57;;;;;;;5.70;1.58;;;3.00;73.90;;;;;;5052226;28;20563;-70
2022/01/06 06:28:29;;;;;;;6.65;1.73;;;3.00;73.90;;;;;;5067324;28;20554;-70
2022/01/06 06:30:58;;;;;;;6.55;1.45;;;3.00;73.80;;;;;;5068832;28;20048;-70
2022/01/06 06:33:44;;;;;;;5.43;1.42;;;3.00;73.90;;;;;;5068732;28;20516;-71
2022/01/06 06:36:17;;;;;;;3.95;1.30;;;3.00;74.10;;;;;;5030523;28;20086;-70
2022/01/06 06:38:43;;;;;;;7.32;1.90;;;2.90;73.90;;;;;;5069321;28;20457;-70
2022/01/06 06:41:18;;;;;;;7.55;1.75;;;3.00;73.90;;;;;;5068526;28;20039;-70
2022/01/06 06:43:55;;;;;;;8.15;2.45;;;3.00;73.80;;;;;;5052558;28;20045;-70
2022/01/06 06:46:21;;;;;;;5.68;2.05;;;3.10;73.60;;;;;;5069984;28;20129;-71
2022/01/06 06:48:48;;;;;;;4.65;2.15;;;3.10;73.00;;;;;;5052178;28;20471;-70
2022/01/06 06:51:31;;;;;;;5.80;1.80;;;3.10;73.60;;;;;;5069636;28;20029;-70
2022/01/06 06:54:13;;;;;;;6.57;1.70;;;3.10;73.70;;;;;;5068656;28;20447;-70
2022/01/06 06:56:58;;;;;;;5.53;1.67;;;3.10;73.80;;;;;;5073178;28;20131;-70
2022/01/06 06:59:28;;;;;;;4.18;1.60;;;3.00;74.10;;;;;;5072628;28;20044;-70
2022/01/06 07:01:57;;;;;;;5.63;1.80;;;3.00;73.70;;;;;;5074856;28;20416;-70
2022/01/06 07:04:32;;;;;;;;;;;2.90;74.50;;;;;;5074375;28;20435;-71
2022/01/06 07:06:58;;;;;;;4.45;1.73;;;2.90;74.00;;;;;;5072250;28;19920;-70
2022/01/06 07:09:35;;;;;;;5.80;1.90;;;2.90;74.60;;;;;;5075097;28;20037;-70
2022/01/06 07:12:05;;;;;;;5.30;2.40;;;2.90;74.60;;;;;;5072135;28;20666;-70
2022/01/06 07:14:34;;;;;;;7.25;2.67;;;2.90;74.50;;;;;;5073241;28;20472;-71
2022/01/06 07:17:02;;;;;;;7.25;2.55;;;3.00;74.70;;;;;;5073392;28;20032;-71
2022/01/06 07:19:37;;;;;;;9.65;1.80;;;3.00;74.60;;;;;;5071763;28;20473;-72
2022/01/06 07:22:09;;;;;;;6.30;2.33;;;3.10;74.60;;;;;;5056458;28;20036;-71
2022/01/06 07:24:36;;;;;;;6.68;2.55;;;3.10;74.60;;;;;;5070150;28;20060;-71
2022/01/06 07:27:04;;;;;;;7.50;2.58;;;3.20;74.70;;;;;;5072656;28;20086;-70
2022/01/06 07:29:39;;;;;;;7.53;2.55;;;3.20;74.50;;;;;;5072514;28;20120;-70
2022/01/06 07:32:08;;;;;;;7.78;2.85;;;3.30;74.50;;;;;;5071358;28;20500;-70
2022/01/06 07:34:47;;;;;;;11.23;2.70;;;3.40;73.40;;;;;;5056643;28;20105;-70
2022/01/06 07:37:16;;;;;;;7.03;2.80;;;3.50;73.80;;;;;;5070890;28;20055;-71
2022/01/06 07:39:45;;;;;;;7.72;3.05;;;3.50;73.60;;;;;;5050925;28;20033;-70
2022/01/06 07:42:12;;;;;;;7.32;2.47;;;3.60;73.60;;;;;;5045260;28;20482;-71
2022/01/06 07:44:46;;;;;;;6.50;2.58;;;3.70;73.40;;;;;;5072969;28;20441;-71
2022/01/06 07:47:56;;;;;;;8.07;2.65;;;3.70;73.40;;;;;;5072998;28;20028;-70
2022/01/06 07:50:33;;;;;;;7.43;2.53;;;3.80;73.20;;;;;;5041201;28;20045;-71
2022/01/06 07:53:04;;;;;;;7.22;2.55;;;3.80;73.10;;;;;;5071536;28;20035;-71
2022/01/06 07:55:50;;;;;;;9.18;3.60;;;3.80;73.20;;;;;;5073803;28;20554;-71
2022/01/06 07:58:21;;;;;;;15.35;2.95;;;3.80;73.50;;;;;;5072335;28;20039;-70
2022/01/06 08:00:47;;;;;;;8.07;2.88;;;3.80;73.50;;;;;;5072602;28;20072;-70
2022/01/06 08:03:13;;;;;;;6.90;2.55;;;3.90;73.70;;;;;;5054476;28;20094;-71
2022/01/06 08:05:47;;;;;;;6.40;2.13;;;3.80;73.50;;;;;;5070875;28;20037;-71
2022/01/06 08:08:13;;;;;;;6.97;2.22;;;3.80;73.50;;;;;;5070026;28;20053;-71
2022/01/06 08:10:40;;;;;;;2.53;1.10;;;3.80;73.60;;;;;;5052940;28;20043;-70
2022/01/06 08:13:06;;;;;;;4.50;1.52;;;3.80;73.60;;;;;;5053328;28;20033;-70
2022/01/06 08:15:32;;;;;;;5.97;1.50;;;3.80;73.50;;;;;;5074685;28;20047;-70
2022/01/06 08:18:16;;;;;;;;;;;3.80;73.10;;;;;;5090720;28;20042;-72
2022/01/06 08:21:25;;;;;;;8.15;3.53;;;3.80;73.50;;;;;;5092178;28;19931;-71
2022/01/06 08:24:01;;;;;;;9.32;4.47;;;3.90;73.50;;;;;;5087970;28;20024;-71
2022/01/06 08:26:30;;;;;;;10.82;4.63;;;3.90;73.20;;;;;;5089280;28;20036;-71
2022/01/06 08:29:06;;;;;;;10.18;4.72;;;3.90;73.50;;;;;;5057389;28;20484;-70
2022/01/06 08:31:34;;;;;;;10.95;4.65;;;3.90;73.40;;;;;;5095993;28;20067;-71
2022/01/06 08:34:03;;;;;;;12.63;5.50;;;3.90;73.50;;;;;;5089042;28;20028;-70
2022/01/06 08:36:31;;;;;;;10.00;4.03;;;3.90;73.50;;;;;;5086982;28;20086;-71
2022/01/06 08:38:59;;;;;;;15.85;4.70;;;3.90;73.70;;;;;;5076854;28;20032;-70
2022/01/06 08:41:25;;;;;;;10.98;5.00;;;3.80;73.60;;;;;;5089613;28;20039;-71
2022/01/06 08:43:54;;;;;;;7.18;3.47;;;3.80;73.90;;;;;;5076717;28;20529;-70
2022/01/06 08:46:25;;;;;;;9.73;3.67;;;3.90;73.90;;;;;;5075482;28;20047;-70
2022/01/06 08:48:53;;;;;;;5.30;2.25;;;3.90;73.60;;;;;;5091108;28;20083;-72
2022/01/06 08:51:58;;;;;;;5.80;2.35;;;4.00;73.50;;;;;;5088842;28;20073;-70
2022/01/06 08:54:31;;;;;;;6.05;3.20;;;4.10;73.40;;;;;;5087633;28;20040;-72
2022/01/06 08:56:58;;;;;;;5.53;2.35;;;4.10;73.30;;;;;;5094901;28;20027;-72
2022/01/06 08:59:28;;;;;;;5.47;1.90;;;4.00;73.40;;;;;;5072767;28;20044;-70
2022/01/06 09:02:04;;;;;;;5.30;2.08;;;4.10;73.30;;;;;;5075884;28;20024;-71
2022/01/06 09:04:30;;;;;;;4.93;1.80;;;4.20;73.10;;;;;;5088929;28;20032;-72
2022/01/06 09:07:03;;;;;;;5.57;2.03;;;4.20;73.20;;;;;;5091167;28;20043;-70
2022/01/06 09:10:25;;;;;;;5.07;2.42;;;4.20;73.30;;;;;;5089731;28;20395;-71
2022/01/06 09:12:39;;;;;;;;;;;4.20;73.10;;;;;;5083434;28;20131;-71
2022/01/06 09:15:07;;;;;;;4.88;1.65;;;4.10;73.40;;;;;;5105899;28;19930;-70
2022/01/06 09:17:38;;;;;;;5.88;2.80;;;4.20;73.20;;;;;;5098831;28;20028;-70
2022/01/06 09:20:11;;;;;;;5.45;2.58;;;4.20;73.40;;;;;;5071612;28;20119;-72
2022/01/06 09:22:44;;;;;;;7.05;2.65;;;4.20;73.30;;;;;;5080326;28;20480;-70
2022/01/06 09:25:22;;;;;;;18.13;11.23;;;4.30;73.10;;;;;;5090744;28;20066;-71
2022/01/06 09:27:49;;;;;;;11.65;6.78;;;4.40;73.00;;;;;;5094756;28;20450;-71
2022/01/06 09:30:15;;;;;;;12.65;6.00;;;4.40;73.20;;;;;;5088556;28;20048;-69
2022/01/06 09:32:41;;;;;;;9.48;5.18;;;4.40;73.40;;;;;;5090569;28;20032;-70
2022/01/06 09:35:08;;;;;;;9.35;4.22;;;4.40;74.60;;;;;;5089239;28;20493;-71
2022/01/06 09:37:37;;;;;;;11.10;5.20;;;4.40;73.10;;;;;;5100485;28;20032;-69
2022/01/06 09:40:12;;;;;;;12.38;6.63;;;4.50;73.70;;;;;;5095252;28;20101;-70
2022/01/06 09:42:42;;;;;;;16.27;9.50;;;4.50;73.30;;;;;;5100965;28;20028;-71
2022/01/06 09:45:24;;;;;;;14.55;7.95;;;4.60;73.20;;;;;;5071641;28;20079;-70
2022/01/06 09:47:53;;;;;;;13.82;7.22;;;4.60;73.10;;;;;;5086367;28;20485;-70
2022/01/06 09:50:23;;;;;;;14.73;8.00;;;4.60;73.20;;;;;;5089099;28;20388;-71
2022/01/06 09:52:54;;;;;;;14.88;7.85;;;4.60;72.70;;;;;;5095790;28;20055;-71
2022/01/06 09:55:21;;;;;;;19.48;8.60;;;4.60;73.20;;;;;;5088814;28;20086;-70
2022/01/06 09:58:07;;;;;;;17.08;9.30;;;4.50;73.30;;;;;;5087312;28;20036;-70
2022/01/06 10:00:38;;;;;;;10.98;4.95;;;4.50;73.40;;;;;;5071693;28;20332;-70
2022/01/06 10:03:11;;;;;;;9.43;5.13;;;4.50;73.40;;;;;;5088552;28;20044;-71
2022/01/06 10:06:26;;;;;;;9.77;5.13;;;4.50;73.20;;;;;;5088673;28;20035;-71
2022/01/06 10:09:01;;;;;;;11.55;4.97;;;4.40;73.60;;;;;;5082570;28;20082;-71
2022/01/06 10:11:53;;;;;;;12.35;5.60;;;4.40;73.50;;;;;;5082254;28;20042;-70
2022/01/06 10:14:32;;;;;;;10.30;4.10;;;4.40;73.80;;;;;;5089512;28;20040;-70
2022/01/06 10:17:05;;;;;;;9.05;4.28;;;4.40;73.50;;;;;;5073034;28;20040;-69
2022/01/06 10:19:37;;;;;;;8.88;4.57;;;4.40;73.70;;;;;;5087390;28;20097;-70
2022/01/06 10:22:03;;;;;;;10.05;5.72;;;4.40;73.90;;;;;;5079206;28;20032;-69
2022/01/06 10:24:36;;;;;;;9.82;4.80;;;4.40;73.30;;;;;;5052362;28;20051;-70
2022/01/06 10:27:24;;;;;;;9.90;4.22;;;4.40;74.00;;;;;;5093276;28;20733;-70
2022/01/06 10:30:03;;;;;;;;;;;4.50;73.80;;;;;;5089548;28;20369;-71
2022/01/06 10:32:36;;;;;;;7.43;4.38;;;4.50;73.70;;;;;;5097239;28;20414;-71
2022/01/06 10:35:04;;;;;;;17.90;9.93;;;4.50;73.10;;;;;;5078189;28;20055;-69
2022/01/06 10:38:13;;;;;;;12.52;6.10;;;4.60;72.90;;;;;;5101671;28;20454;-69
2022/01/06 10:40:47;;;;;;;12.98;7.47;;;4.60;73.50;;;;;;5053900;28;20077;-70
2022/01/06 10:43:15;;;;;;;8.32;4.07;;;4.70;73.50;;;;;;5097926;28;20054;-70
2022/01/06 10:46:00;;;;;;;12.13;5.97;;;4.60;73.50;;;;;;5087749;28;20031;-70
2022/01/06 10:48:29;;;;;;;7.93;3.58;;;4.60;73.50;;;;;;5103837;28;20069;-69
2022/01/06 10:51:04;;;;;;;15.68;4.32;;;4.60;73.60;;;;;;5088553;28;20024;-70
2022/01/06 10:53:32;;;;;;;8.48;3.70;;;4.60;73.60;;;;;;5071159;28;20404;-69
2022/01/06 10:56:16;;;;;;;7.00;3.47;;;4.60;73.70;;;;;;5090135;28;20124;-70
2022/01/06 10:58:47;;;;;;;7.32;3.40;;;4.60;73.70;;;;;;5090821;28;20043;-70
2022/01/06 11:01:19;;;;;;;10.50;4.47;;;4.60;73.80;;;;;;5088267;28;20040;-71
2022/01/06 11:03:49;;;;;;;9.77;4.30;;;4.50;73.90;;;;;;5076318;28;20036;-71
2022/01/06 11:06:23;;;;;;;10.90;5.32;;;4.60;74.10;;;;;;5087791;28;20047;-70
2022/01/06 11:08:51;;;;;;;9.82;4.25;;;4.60;74.00;;;;;;5095712;28;20086;-70
2022/01/06 11:11:43;;;;;;;14.10;4.43;;;4.60;74.10;;;;;;5065241;28;20285;-71
2022/01/06 11:14:15;;;;;;;7.30;3.53;;;4.60;74.10;;;;;;5092035;28;20201;-70
2022/01/06 11:17:07;;;;;;;8.82;4.57;;;4.60;74.20;;;;;;5096256;28;20032;-70
2022/01/06 11:19:33;;;;;;;10.45;4.80;;;4.60;74.20;;;;;;5089292;28;20044;-70
2022/01/06 11:22:04;;;;;;;13.60;5.95;;;4.50;74.30;;;;;;5075167;28;20077;-70
2022/01/06 11:24:31;;;;;;;9.77;4.88;;;4.50;74.60;;;;;;5087906;28;20066;-70
2022/01/06 11:27:36;;;;;;;10.55;4.53;;;4.50;74.60;;;;;;5076543;28;20071;-70
2022/01/06 11:30:27;;;;;;;9.70;4.72;;;4.60;74.80;;;;;;5076370;28;20072;-69
2022/01/06 11:33:18;;;;;;;13.18;6.60;;;4.60;74.80;;;;;;5070351;28;20172;-69
2022/01/06 11:36:17;;;;;;;14.77;8.10;;;4.60;74.80;;;;;;5088749;28;20051;-70
2022/01/06 11:39:00;;;;;;;12.48;6.18;;;4.60;74.90;;;;;;5074714;28;20047;-71
2022/01/06 11:41:58;;;;;;;10.70;6.10;;;4.70;74.90;;;;;;5086433;28;20036;-71
2022/01/06 11:44:31;;;;;;;17.40;6.75;;;4.80;74.70;;;;;;5095512;28;20035;-71
2022/01/06 11:47:44;;;;;;;12.35;6.18;;;4.80;74.80;;;;;;5109258;27;20036;-70
2022/01/06 11:50:26;;;;;;;12.90;6.85;;;4.80;74.20;;;;;;5093986;28;20044;-70
2022/01/06 11:53:17;;;;;;;13.68;7.03;;;4.90;74.90;;;;;;5096696;27;20036;-71
2022/01/06 11:55:50;;;;;;;12.23;7.53;;;5.10;74.60;;;;;;5097197;28;20061;-69
2022/01/06 11:58:35;;;;;;;15.50;7.35;;;5.10;74.50;;;;;;5095334;28;20043;-71
2022/01/06 12:01:18;;;;;;;15.20;7.30;;;5.00;74.50;;;;;;5105045;28;20063;-71
2022/01/06 12:03:47;;;;;;;16.92;7.13;;;5.10;74.80;;;;;;5095335;28;20040;-71
2022/01/06 12:06:36;;;;;;;13.45;6.30;;;5.20;74.60;;;;;;5094186;28;20366;-70
2022/01/06 12:09:41;;;;;;;15.30;7.80;;;5.30;74.00;;;;;;5085750;28;20055;-70
2022/01/06 12:12:44;;;;;;;15.55;6.65;;;5.30;74.20;;;;;;5095416;28;20050;-71
2022/01/06 12:15:22;;;;;;;13.82;6.57;;;5.50;74.00;;;;;;5093978;28;20404;-70
2022/01/06 12:17:55;;;;;;;12.52;5.65;;;5.60;73.30;;;;;;5085808;28;20325;-71
2022/01/06 12:20:44;;;;;;;12.98;5.70;;;5.70;73.00;;;;;;5096345;28;20088;-71
2022/01/06 12:23:21;;;;;;;6.95;2.97;;;5.80;72.80;;;;;;5094858;28;20166;-71
2022/01/06 12:26:09;;;;;;;9.38;4.68;;;5.90;72.00;;;;;;5074871;28;20040;-70
2022/01/06 12:28:49;;;;;;;9.10;3.53;;;5.90;71.80;;;;;;5090956;28;20112;-71
2022/01/06 12:31:42;;;;;;;7.78;2.72;;;6.10;71.60;;;;;;5097168;28;20038;-70
2022/01/06 12:34:23;;;;;;;7.43;2.38;;;6.10;71.00;;;;;;5112678;27;20059;-70
2022/01/06 12:36:49;;;;;;;8.48;2.08;;;6.20;70.20;;;;;;5113392;28;20035;-70
2022/01/06 12:39:23;;;;;;;4.85;1.52;;;6.20;70.00;;;;;;5114753;28;20451;-70
2022/01/06 12:41:51;;;;;;;4.53;1.83;;;6.30;69.20;;;;;;5095856;28;20036;-71
2022/01/06 12:44:39;;;;;;;4.20;1.80;;;6.40;69.20;;;;;;5113325;28;20031;-71
2022/01/06 12:47:13;;;;;;;6.65;1.83;;;6.40;68.80;;;;;;5102610;28;20023;-71
2022/01/06 12:49:42;;;;;;;5.10;1.45;;;6.50;68.30;;;;;;5073409;27;20048;-70
2022/01/06 12:52:09;;;;;;;5.97;2.00;;;6.50;67.70;;;;;;5085015;28;20036;-70
2022/01/06 12:54:57;;;;;;;;;;;6.40;67.90;;;;;;5110476;28;20035;-70
2022/01/06 12:57:38;;;;;;;;;;;6.30;67.80;;;;;;5103981;28;19927;-69
2022/01/06 13:00:26;;;;;;;5.90;2.17;;;6.30;67.30;;;;;;5093474;28;19915;-70
2022/01/06 13:02:56;;;;;;;7.15;2.67;;;6.30;67.90;;;;;;5091005;28;20111;-71
2022/01/06 13:05:25;;;;;;;6.65;2.25;;;6.30;68.10;;;;;;5092704;28;20134;-71
2022/01/06 13:08:28;;;;;;;5.20;1.60;;;6.20;68.10;;;;;;5080623;28;20154;-71
2022/01/06 13:11:15;;;;;;;5.90;2.15;;;6.20;68.30;;;;;;5101964;28;20131;-72
2022/01/06 13:14:03;;;;;;;4.72;1.90;;;6.10;68.60;;;;;;5064502;28;20389;-70
2022/01/06 13:16:50;;;;;;;;;;;6.00;68.50;;;;;;5084528;28;20036;-70
2022/01/06 13:19:19;;;;;;;11.73;5.67;;;5.90;68.90;;;;;;5088948;28;20445;-72
2022/01/06 13:22:06;;;;;;;6.90;2.72;;;5.90;69.10;;;;;;5089944;28;20458;-70
2022/01/06 13:24:36;;;;;;;5.33;1.90;;;5.90;69.30;;;;;;5069006;28;20040;-70
2022/01/06 13:27:13;;;;;;;6.53;2.58;;;5.80;69.10;;;;;;5069635;28;20503;-70
2022/01/06 13:30:01;;;;;;;8.75;3.15;;;5.80;69.50;;;;;;5097199;28;20081;-71
2022/01/06 13:32:27;;;;;;;6.32;2.38;;;5.80;69.60;;;;;;5090710;28;20077;-72
2022/01/06 13:35:21;;;;;;;5.45;2.75;;;5.70;70.40;;;;;;5090004;28;20048;-71
2022/01/06 13:37:58;;;;;;;8.73;2.90;;;5.80;69.80;;;;;;5077647;28;20064;-69
2022/01/06 13:40:51;;;;;;;7.20;2.25;;;5.80;69.80;;;;;;5096566;28;20047;-70
2022/01/06 13:43:29;;;;;;;9.50;2.80;;;5.80;69.90;;;;;;5078020;28;20547;-70
2022/01/06 13:46:08;;;;;;;13.00;6.63;;;5.70;69.90;;;;;;5070213;28;20093;-70
2022/01/06 13:51:52;;;;;;;13.00;4.97;;;5.80;69.90;;;;;;5060139;28;20051;-70